createdAt,value
2019-05-19T00:01:45.916Z,66.40
2019-05-19T00:04:17.238Z,64.85
2019-05-19T00:06:48.313Z,64.35
2019-05-19T00:09:19.345Z,64.79
2019-05-19T00:11:50.361Z,64.66
2019-05-19T00:14:21.607Z,65.36
2019-05-19T00:16:53.003Z,65.00
2019-05-19T00:19:26.668Z,65.34
2019-05-19T00:21:57.049Z,66.24
2019-05-19T00:24:28.712Z,66.49
2019-05-19T00:26:59.805Z,66.15
2019-05-19T00:29:30.948Z,65.62
2019-05-19T00:32:02.297Z,66.37
2019-05-19T00:34:33.700Z,66.37
2019-05-19T00:37:04.691Z,66.96
2019-05-19T00:39:36.239Z,67.46
2019-05-19T00:42:07.414Z,67.96
2019-05-19T00:44:38.703Z,68.20
2019-05-19T00:47:09.861Z,67.97
2019-05-19T00:49:41.883Z,68.06
2019-05-19T00:52:13.084Z,68.30
2019-05-19T00:54:44.866Z,68.40
2019-05-19T00:57:16.437Z,67.07
2019-05-19T00:59:47.604Z,66.89
2019-05-19T01:02:18.619Z,66.74
2019-05-19T01:04:49.862Z,66.38
2019-05-19T01:07:20.834Z,66.10
2019-05-19T01:09:51.865Z,66.32
2019-05-19T01:12:22.817Z,67.21
2019-05-19T01:14:54.337Z,66.35
2019-05-19T01:17:25.441Z,65.88
2019-05-19T01:19:56.522Z,66.46
2019-05-19T01:22:28.904Z,67.39
2019-05-19T01:24:59.886Z,68.05
2019-05-19T01:27:31.220Z,68.56
2019-05-19T01:30:02.838Z,68.22
2019-05-19T01:32:33.966Z,68.44
2019-05-19T01:35:05.156Z,67.97
2019-05-19T01:37:36.796Z,67.15
2019-05-19T01:40:08.245Z,66.96
2019-05-19T01:42:39.375Z,67.40
2019-05-19T01:45:11.329Z,66.88
2019-05-19T01:47:42.429Z,67.34
2019-05-19T01:50:18.505Z,67.85
2019-05-19T01:52:46.796Z,68.21
2019-05-19T01:55:18.079Z,67.00
2019-05-19T01:57:49.699Z,67.06
2019-05-19T02:00:20.854Z,66.73
2019-05-19T02:02:51.963Z,66.73
2019-05-19T02:05:23.004Z,68.06
2019-05-19T02:07:54.080Z,68.29
2019-05-19T02:10:25.656Z,68.47
2019-05-19T02:12:56.917Z,68.90
2019-05-19T02:15:29.339Z,69.49
2019-05-19T02:18:00.642Z,68.64
2019-05-19T02:20:33.576Z,67.89
2019-05-19T02:23:04.427Z,68.03
2019-05-19T02:25:35.684Z,68.82
2019-05-19T02:28:08.215Z,68.49
2019-05-19T02:30:39.629Z,68.04
2019-05-19T02:33:10.664Z,67.78
2019-05-19T02:35:41.906Z,67.28
2019-05-19T02:38:13.104Z,67.20
2019-05-19T02:40:48.418Z,67.42
2019-05-19T02:43:21.646Z,67.96
2019-05-19T02:45:56.607Z,69.40
2019-05-19T02:48:29.265Z,70.22
2019-05-19T02:51:01.088Z,69.07
2019-05-19T02:53:33.092Z,68.72
2019-05-19T02:56:04.582Z,68.70
2019-05-19T02:58:36.373Z,67.86
2019-05-19T03:01:07.638Z,67.96
2019-05-19T03:03:39.006Z,67.99
2019-05-19T03:06:10.016Z,68.02
2019-05-19T03:08:41.307Z,68.19
2019-05-19T03:11:12.812Z,69.45
2019-05-19T03:13:43.791Z,69.75
2019-05-19T03:16:14.842Z,69.86
2019-05-19T03:18:45.828Z,68.85
2019-05-19T03:21:16.833Z,68.44
2019-05-19T03:23:49.075Z,68.76
2019-05-19T03:26:20.377Z,68.99
2019-05-19T03:28:51.732Z,68.69
2019-05-19T03:31:29.800Z,69.50
2019-05-19T03:34:00.860Z,68.97
2019-05-19T03:36:31.857Z,68.03
2019-05-19T03:39:03.404Z,67.37
2019-05-19T03:41:35.133Z,67.89
2019-05-19T03:44:06.385Z,67.86
2019-05-19T03:46:37.368Z,67.13
2019-05-19T03:49:08.715Z,67.22
2019-05-19T03:51:39.990Z,66.49
2019-05-19T03:54:11.368Z,66.33
2019-05-19T03:56:43.155Z,67.15
2019-05-19T03:59:14.196Z,67.16
2019-05-19T04:01:45.243Z,67.44
2019-05-19T04:04:16.611Z,68.57
2019-05-19T04:06:47.963Z,68.99
2019-05-19T04:09:18.967Z,68.57
2019-05-19T04:11:49.992Z,68.04
2019-05-19T04:14:20.976Z,68.00
2019-05-19T04:16:52.400Z,66.79
2019-05-19T04:19:23.368Z,66.98
2019-05-19T04:21:54.478Z,67.15
2019-05-19T04:24:25.458Z,68.18
2019-05-19T04:26:58.058Z,67.19
2019-05-19T04:29:29.600Z,67.02
2019-05-19T04:32:00.577Z,66.21
2019-05-19T04:34:32.897Z,65.61
2019-05-19T04:37:05.632Z,64.85
2019-05-19T04:39:37.299Z,65.07
2019-05-19T04:42:08.604Z,65.44
2019-05-19T04:44:40.058Z,66.01
2019-05-19T04:47:11.153Z,65.98
2019-05-19T04:49:42.138Z,65.26
2019-05-19T04:52:13.466Z,65.96
2019-05-19T04:54:44.620Z,66.00
2019-05-19T04:57:15.823Z,65.20
2019-05-19T04:59:47.216Z,64.39
2019-05-19T05:02:18.624Z,64.36
2019-05-19T05:04:50.005Z,63.86
2019-05-19T05:07:21.408Z,64.83
2019-05-19T05:09:52.837Z,64.79
2019-05-19T05:12:23.822Z,63.94
2019-05-19T05:14:55.838Z,62.79
2019-05-19T05:17:27.326Z,62.93
2019-05-19T05:19:59.335Z,61.87
2019-05-19T05:22:30.389Z,60.63
2019-05-19T05:25:01.738Z,60.47
2019-05-19T05:27:32.838Z,60.00
2019-05-19T05:30:04.112Z,59.37
2019-05-19T05:32:35.147Z,59.41
2019-05-19T05:35:07.437Z,58.86
2019-05-19T05:37:38.746Z,58.86
2019-05-19T05:40:10.471Z,58.97
2019-05-19T05:42:41.943Z,59.53
2019-05-19T05:45:13.338Z,58.87
2019-05-19T05:47:44.363Z,57.59
2019-05-19T05:50:15.745Z,57.72
2019-05-19T05:52:47.073Z,57.11
2019-05-19T05:55:18.272Z,57.64
2019-05-19T05:57:49.394Z,57.70
2019-05-19T06:00:22.709Z,56.64
2019-05-19T06:02:53.965Z,55.60
2019-05-19T06:05:25.332Z,55.20
2019-05-19T06:07:56.518Z,54.71
2019-05-19T06:10:28.229Z,54.13
2019-05-19T06:12:59.571Z,54.62
2019-05-19T06:15:30.646Z,54.90
2019-05-19T06:18:02.037Z,55.20
2019-05-19T06:20:33.201Z,54.81
2019-05-19T06:23:04.656Z,54.51
2019-05-19T06:25:36.271Z,54.21
2019-05-19T06:28:07.365Z,54.00
2019-05-19T06:30:38.451Z,53.96
2019-05-19T06:33:09.972Z,54.16
2019-05-19T06:35:45.418Z,53.80
2019-05-19T06:38:20.598Z,53.29
2019-05-19T06:40:51.849Z,53.01
2019-05-19T06:43:23.071Z,52.56
2019-05-19T06:45:54.443Z,52.47
2019-05-19T06:48:25.660Z,51.58
2019-05-19T06:50:56.805Z,51.34
2019-05-19T06:53:28.139Z,51.28
2019-05-19T06:55:59.676Z,52.17
2019-05-19T06:58:31.491Z,51.51
2019-05-19T07:01:02.847Z,51.78
2019-05-19T07:03:34.243Z,50.71
2019-05-19T07:06:05.413Z,50.19
2019-05-19T07:08:36.682Z,48.92
2019-05-19T07:11:07.757Z,48.30
2019-05-19T07:13:39.592Z,49.25
2019-05-19T07:16:10.719Z,48.63
2019-05-19T07:18:41.822Z,49.34
2019-05-19T07:21:18.110Z,49.18
2019-05-19T07:23:50.519Z,49.94
2019-05-19T07:26:22.160Z,49.99
2019-05-19T07:28:53.485Z,48.41
2019-05-19T07:31:24.749Z,48.35
2019-05-19T07:33:55.701Z,49.09
2019-05-19T07:36:27.179Z,48.31
2019-05-19T07:38:58.436Z,49.00
2019-05-19T07:41:30.196Z,48.64
2019-05-19T07:44:01.641Z,48.99
2019-05-19T07:46:32.670Z,47.82
2019-05-19T07:49:03.768Z,48.00
2019-05-19T07:51:35.288Z,47.80
2019-05-19T07:54:07.569Z,47.31
2019-05-19T07:56:39.104Z,46.22
2019-05-19T07:59:14.194Z,45.10
2019-05-19T08:01:45.249Z,44.99
2019-05-19T08:04:16.389Z,45.60
2019-05-19T08:06:48.150Z,45.13
2019-05-19T08:09:19.203Z,44.44
2019-05-19T08:11:50.263Z,44.52
2019-05-19T08:14:21.333Z,42.99
2019-05-19T08:16:53.099Z,42.88
2019-05-19T08:19:24.091Z,43.14
2019-05-19T08:21:55.154Z,44.68
2019-05-19T08:24:26.299Z,44.58
2019-05-19T08:26:57.580Z,43.35
2019-05-19T08:29:29.274Z,44.54
2019-05-19T08:32:00.860Z,44.26
2019-05-19T08:34:32.241Z,43.99
2019-05-19T08:37:03.376Z,44.10
2019-05-19T08:39:35.081Z,43.74
2019-05-19T08:42:06.094Z,42.67
2019-05-19T08:44:37.136Z,43.34
2019-05-19T08:47:08.111Z,42.88
2019-05-19T08:49:39.455Z,42.38
2019-05-19T08:52:10.814Z,41.97
2019-05-19T08:54:42.172Z,41.27
2019-05-19T08:57:13.226Z,41.84
2019-05-19T08:59:44.370Z,42.13
2019-05-19T09:02:15.685Z,41.58
2019-05-19T09:04:46.950Z,40.86
2019-05-19T09:07:18.330Z,42.27
2019-05-19T09:09:50.061Z,41.28
2019-05-19T09:12:21.594Z,40.84
2019-05-19T09:14:52.706Z,41.79
2019-05-19T09:17:24.179Z,41.45
2019-05-19T09:19:58.442Z,40.32
2019-05-19T09:22:30.893Z,40.26
2019-05-19T09:25:02.276Z,41.82
2019-05-19T09:27:33.644Z,42.92
2019-05-19T09:30:05.670Z,41.14
2019-05-19T09:32:38.970Z,40.74
2019-05-19T09:35:10.192Z,41.30
2019-05-19T09:37:41.208Z,41.40
2019-05-19T09:40:12.605Z,42.06
2019-05-19T09:42:44.156Z,41.66
2019-05-19T09:45:15.553Z,40.82
2019-05-19T09:47:47.513Z,39.96
2019-05-19T09:50:18.987Z,40.88
2019-05-19T09:52:50.063Z,40.16
2019-05-19T09:55:21.089Z,39.42
2019-05-19T09:57:52.782Z,39.59
2019-05-19T10:00:23.933Z,38.69
2019-05-19T10:02:55.252Z,37.62
2019-05-19T10:05:26.241Z,36.87
2019-05-19T10:07:57.615Z,38.49
2019-05-19T10:10:58.808Z,39.89
2019-05-19T10:13:29.901Z,39.57
2019-05-19T10:16:01.783Z,37.32
2019-05-19T10:18:32.809Z,35.68
2019-05-19T10:21:03.991Z,36.02
2019-05-19T10:23:34.992Z,36.22
2019-05-19T10:26:06.029Z,35.22
2019-05-19T10:28:37.120Z,35.69
2019-05-19T10:31:08.207Z,34.96
2019-05-19T10:33:39.483Z,35.57
2019-05-19T10:36:10.474Z,34.55
2019-05-19T10:38:41.718Z,35.75
2019-05-19T10:41:13.041Z,34.48
2019-05-19T10:43:44.436Z,35.21
2019-05-19T10:46:15.574Z,33.79
2019-05-19T10:48:47.664Z,33.90
2019-05-19T10:51:18.937Z,34.81
2019-05-19T10:53:50.319Z,33.99
2019-05-19T10:56:22.073Z,33.86
2019-05-19T10:58:53.525Z,34.31
2019-05-19T11:01:24.600Z,35.34
2019-05-19T11:03:57.462Z,34.64
2019-05-19T11:06:29.027Z,33.89
2019-05-19T11:09:00.414Z,34.11
2019-05-19T11:11:32.761Z,35.30
2019-05-19T11:14:03.954Z,36.04
2019-05-19T11:16:35.328Z,35.60
2019-05-19T11:19:06.377Z,35.62
2019-05-19T11:21:37.745Z,33.02
2019-05-19T11:24:08.849Z,35.01
2019-05-19T11:26:39.921Z,35.55
2019-05-19T11:29:10.923Z,35.21
2019-05-19T11:31:42.270Z,34.12
2019-05-19T11:34:13.314Z,34.22
2019-05-19T11:36:44.361Z,34.79
2019-05-19T11:39:15.704Z,35.62
2019-05-19T11:41:47.013Z,36.90
2019-05-19T11:44:18.308Z,38.53
2019-05-19T11:46:49.375Z,38.96
2019-05-19T11:49:20.844Z,36.05
2019-05-19T11:51:51.904Z,34.88
2019-05-19T11:54:23.139Z,34.88
2019-05-19T11:56:54.385Z,35.22
2019-05-19T11:59:25.390Z,36.09
2019-05-19T12:01:56.577Z,35.19
2019-05-19T12:04:27.640Z,34.48
2019-05-19T12:06:59.788Z,34.40
2019-05-19T12:09:31.059Z,35.10
2019-05-19T12:12:02.140Z,34.96
2019-05-19T12:14:34.412Z,33.80
2019-05-19T12:17:06.556Z,32.77
2019-05-19T12:19:37.913Z,33.26
2019-05-19T12:22:09.214Z,32.92
2019-05-19T12:24:40.201Z,32.62
2019-05-19T12:27:11.185Z,32.29
2019-05-19T12:29:42.176Z,31.53
2019-05-19T12:32:13.439Z,32.24
2019-05-19T12:34:45.397Z,32.54
2019-05-19T12:37:16.355Z,31.97
2019-05-19T12:39:47.342Z,32.07
2019-05-19T12:42:18.394Z,31.72
2019-05-19T12:44:50.004Z,31.65
2019-05-19T12:47:21.658Z,32.23
2019-05-19T12:49:52.901Z,31.15
2019-05-19T12:52:24.611Z,32.51
2019-05-19T12:54:55.638Z,30.41
2019-05-19T12:57:27.038Z,29.37
2019-05-19T12:59:58.198Z,28.11
2019-05-19T13:02:29.427Z,29.40
2019-05-19T13:05:05.480Z,30.00
2019-05-19T13:07:33.446Z,29.87
2019-05-19T13:10:05.860Z,29.76
2019-05-19T13:12:37.163Z,27.27
2019-05-19T13:15:08.501Z,27.80
2019-05-19T13:17:39.577Z,27.29
2019-05-19T13:20:10.869Z,27.07
2019-05-19T13:22:42.457Z,26.66
2019-05-19T13:25:13.564Z,27.34
2019-05-19T13:27:44.848Z,27.47
2019-05-19T13:30:16.098Z,28.45
2019-05-19T13:32:47.202Z,29.64
2019-05-19T13:35:18.274Z,30.11
2019-05-19T13:37:49.723Z,30.62
2019-05-19T13:40:20.803Z,30.31
2019-05-19T13:42:51.772Z,31.33
2019-05-19T13:45:23.159Z,31.45
2019-05-19T13:47:54.422Z,31.20
2019-05-19T13:50:25.504Z,30.47
2019-05-19T13:52:56.841Z,31.08
2019-05-19T13:55:28.323Z,31.72
2019-05-19T13:57:59.308Z,31.52
2019-05-19T14:00:30.344Z,31.66
2019-05-19T14:03:01.407Z,32.38
2019-05-19T14:05:32.680Z,32.12
2019-05-19T14:08:03.692Z,33.16
2019-05-19T14:10:35.416Z,30.27
2019-05-19T14:13:06.432Z,31.65
2019-05-19T14:15:37.856Z,32.08
2019-05-19T14:18:09.575Z,32.26
2019-05-19T14:20:40.636Z,31.99
2019-05-19T14:23:11.893Z,31.49
2019-05-19T14:25:42.993Z,32.46
2019-05-19T14:28:14.301Z,30.73
2019-05-19T14:30:45.675Z,31.52
2019-05-19T14:33:16.942Z,31.67
2019-05-19T14:35:48.216Z,30.22
2019-05-19T14:38:19.666Z,30.35
2019-05-19T14:40:51.232Z,30.70
2019-05-19T14:43:23.014Z,30.87
2019-05-19T14:45:54.337Z,29.18
2019-05-19T14:48:25.573Z,28.83
2019-05-19T14:50:57.015Z,29.23
2019-05-19T14:53:29.240Z,29.52
2019-05-19T14:56:00.799Z,30.12
2019-05-19T14:58:31.819Z,29.50
2019-05-19T15:01:03.089Z,29.79
2019-05-19T15:03:34.214Z,29.92
2019-05-19T15:06:05.336Z,30.08
2019-05-19T15:08:36.944Z,30.02
2019-05-19T15:11:07.914Z,31.08
2019-05-19T15:13:39.434Z,31.38
2019-05-19T15:16:10.623Z,31.00
2019-05-19T15:18:41.943Z,31.36
2019-05-19T15:21:13.620Z,31.53
2019-05-19T15:23:44.952Z,31.59
2019-05-19T15:26:16.153Z,31.64
2019-05-19T15:28:47.303Z,31.59
2019-05-19T15:31:20.490Z,31.20
2019-05-19T15:33:51.971Z,31.79
2019-05-19T15:36:23.325Z,32.17
2019-05-19T15:38:54.808Z,32.67
2019-05-19T15:41:26.087Z,32.76
2019-05-19T15:43:57.062Z,33.44
2019-05-19T15:46:28.427Z,33.70
2019-05-19T15:48:59.379Z,33.64
2019-05-19T15:51:37.124Z,33.55
2019-05-19T15:54:03.882Z,33.39
2019-05-19T15:56:34.942Z,33.29
2019-05-19T15:59:06.394Z,33.25
2019-05-19T16:01:37.403Z,33.12
2019-05-19T16:04:08.349Z,33.22
2019-05-19T16:06:39.380Z,34.10
2019-05-19T16:09:10.719Z,34.47
2019-05-19T16:11:41.972Z,34.03
2019-05-19T16:14:14.520Z,34.47
2019-05-19T16:16:45.484Z,34.05
2019-05-19T16:19:16.753Z,33.81
2019-05-19T16:21:48.081Z,34.13
2019-05-19T16:24:19.304Z,33.74
2019-05-19T16:26:50.300Z,33.28
2019-05-19T16:29:21.814Z,33.17
2019-05-19T16:31:53.147Z,33.39
2019-05-19T16:34:25.344Z,33.03
2019-05-19T16:36:56.346Z,33.16
2019-05-19T16:39:27.940Z,33.52
2019-05-19T16:41:58.935Z,33.78
2019-05-19T16:44:30.158Z,33.42
2019-05-19T16:47:01.209Z,32.63
2019-05-19T16:49:32.909Z,32.47
2019-05-19T16:52:03.975Z,31.65
2019-05-19T16:54:37.583Z,32.30
2019-05-19T16:57:09.221Z,32.24
2019-05-19T16:59:46.341Z,31.85
2019-05-19T17:02:17.342Z,32.11
2019-05-19T17:04:49.339Z,32.02
2019-05-19T17:07:20.727Z,32.46
2019-05-19T17:09:51.697Z,32.17
2019-05-19T17:12:22.731Z,32.45
2019-05-19T17:14:53.789Z,32.70
2019-05-19T17:17:24.817Z,32.86
2019-05-19T17:19:55.831Z,32.72
2019-05-19T17:22:28.159Z,33.04
2019-05-19T17:25:00.415Z,33.46
2019-05-19T17:27:32.677Z,33.09
2019-05-19T17:30:03.823Z,33.72
2019-05-19T17:32:35.166Z,33.74
2019-05-19T17:35:07.016Z,33.95
2019-05-19T17:37:38.954Z,34.43
2019-05-19T17:40:10.860Z,33.69
2019-05-19T17:42:42.611Z,33.89
2019-05-19T17:45:14.300Z,33.98
2019-05-19T17:47:45.817Z,34.27
2019-05-19T17:50:20.561Z,34.61
2019-05-19T17:52:51.873Z,34.40
2019-05-19T17:55:22.961Z,34.42
2019-05-19T17:57:54.387Z,34.45
2019-05-19T18:00:37.950Z,34.33
2019-05-19T18:03:09.916Z,34.07
2019-05-19T18:05:43.415Z,34.03
2019-05-19T18:08:15.954Z,34.34
2019-05-19T18:10:48.101Z,34.80
2019-05-19T18:13:19.455Z,35.70
2019-05-19T18:15:50.667Z,36.56
2019-05-19T18:18:24.621Z,36.43
2019-05-19T18:20:56.192Z,36.32
2019-05-19T18:23:28.162Z,36.32
2019-05-19T18:25:59.483Z,36.63
2019-05-19T18:28:30.613Z,37.16
2019-05-19T18:31:01.671Z,38.04
2019-05-19T18:33:33.428Z,38.13
2019-05-19T18:36:04.649Z,38.22
2019-05-19T18:38:35.890Z,38.64
2019-05-19T18:41:06.973Z,38.98
2019-05-19T18:43:38.267Z,39.66
2019-05-19T18:46:09.933Z,40.33
2019-05-19T18:48:40.978Z,40.83
2019-05-19T18:51:13.064Z,40.93
2019-05-19T18:53:44.143Z,41.21
2019-05-19T18:56:15.704Z,41.20
2019-05-19T18:58:46.872Z,41.86
2019-05-19T19:01:18.138Z,42.19
2019-05-19T19:03:49.327Z,42.17
2019-05-19T19:06:20.814Z,42.36
2019-05-19T19:08:51.974Z,42.96
2019-05-19T19:11:23.549Z,43.19
2019-05-19T19:13:55.820Z,42.60
2019-05-19T19:16:27.203Z,42.93
2019-05-19T19:18:58.320Z,42.79
2019-05-19T19:21:29.514Z,42.78
2019-05-19T19:24:01.753Z,43.63
2019-05-19T19:26:33.026Z,44.27
2019-05-19T19:29:04.061Z,43.03
2019-05-19T19:31:47.728Z,43.05
2019-05-19T19:34:08.573Z,43.25
2019-05-19T19:36:39.715Z,43.45
2019-05-19T19:39:12.427Z,44.32
2019-05-19T19:41:43.726Z,44.32
2019-05-19T19:44:14.779Z,43.73
2019-05-19T19:46:46.365Z,44.59
2019-05-19T19:49:17.553Z,45.12
2019-05-19T19:51:49.218Z,44.75
2019-05-19T19:54:20.944Z,45.31
2019-05-19T19:56:51.955Z,44.47
2019-05-19T19:59:23.295Z,44.65
2019-05-19T20:01:54.608Z,44.87
2019-05-19T20:04:26.045Z,44.90
2019-05-19T20:06:57.203Z,45.28
2019-05-19T20:09:30.651Z,46.00
2019-05-19T20:12:01.907Z,46.03
2019-05-19T20:14:32.976Z,45.62
2019-05-19T20:17:07.351Z,45.64
2019-05-19T20:19:38.670Z,46.09
2019-05-19T20:22:09.737Z,46.93
2019-05-19T20:24:41.614Z,46.27
2019-05-19T20:27:12.632Z,46.24
2019-05-19T20:29:44.044Z,46.86
2019-05-19T20:32:15.055Z,46.73
2019-05-19T20:34:46.401Z,47.20
2019-05-19T20:37:17.408Z,47.62
2019-05-19T20:39:50.958Z,48.03
2019-05-19T20:42:23.345Z,47.83
2019-05-19T20:44:54.335Z,47.99
2019-05-19T20:47:25.463Z,47.94
2019-05-19T20:49:56.466Z,48.15
2019-05-19T20:52:27.807Z,48.11
2019-05-19T20:54:58.845Z,48.56
2019-05-19T20:57:29.871Z,49.03
2019-05-19T21:00:01.147Z,49.76
2019-05-19T21:02:32.161Z,49.94
2019-05-19T21:05:03.289Z,49.39
2019-05-19T21:07:34.377Z,49.87
2019-05-19T21:10:06.395Z,50.07
2019-05-19T21:12:38.968Z,50.25
2019-05-19T21:15:10.451Z,50.35
2019-05-19T21:17:42.686Z,50.73
2019-05-19T21:20:14.308Z,50.72
2019-05-19T21:22:45.527Z,51.54
2019-05-19T21:25:16.746Z,51.57
2019-05-19T21:27:48.403Z,52.14
2019-05-19T21:30:21.760Z,52.32
2019-05-19T21:32:52.718Z,52.16
2019-05-19T21:35:24.044Z,52.61
2019-05-19T21:37:56.028Z,51.86
2019-05-19T21:40:27.028Z,52.20
2019-05-19T21:42:58.372Z,53.01
2019-05-19T21:45:29.356Z,52.83
2019-05-19T21:48:00.379Z,53.43
2019-05-19T21:50:31.949Z,52.99
2019-05-19T21:53:06.383Z,53.62
2019-05-19T21:55:36.292Z,53.20
2019-05-19T21:58:07.528Z,53.83
2019-05-19T22:00:39.078Z,53.99
2019-05-19T22:03:10.417Z,54.51
2019-05-19T22:05:52.808Z,54.37
2019-05-19T22:08:16.103Z,54.48
2019-05-19T22:10:47.270Z,54.57
2019-05-19T22:13:18.315Z,55.28
2019-05-19T22:15:49.694Z,55.28
2019-05-19T22:18:20.782Z,55.17
2019-05-19T22:20:52.100Z,55.13
2019-05-19T22:23:23.442Z,55.65
2019-05-19T22:25:54.753Z,55.62
2019-05-19T22:28:26.432Z,56.42
2019-05-19T22:30:57.690Z,56.39
2019-05-19T22:33:29.205Z,56.74
2019-05-19T22:36:00.801Z,56.21
2019-05-19T22:38:32.066Z,56.24
2019-05-19T22:41:03.130Z,55.67
2019-05-19T22:43:34.095Z,56.28
2019-05-19T22:46:05.269Z,56.40
2019-05-19T22:48:37.873Z,56.76
2019-05-19T22:51:09.014Z,57.24
2019-05-19T22:53:41.076Z,57.40
2019-05-19T22:56:12.147Z,57.83
2019-05-19T22:58:43.110Z,57.96
2019-05-19T23:01:14.688Z,57.99
2019-05-19T23:03:45.685Z,57.59
2019-05-19T23:06:17.402Z,58.13
2019-05-19T23:08:48.827Z,57.80
2019-05-19T23:11:19.979Z,58.21
2019-05-19T23:13:53.953Z,58.21
2019-05-19T23:16:25.009Z,58.08
2019-05-19T23:18:57.687Z,57.82
2019-05-19T23:21:29.567Z,57.98
2019-05-19T23:24:01.416Z,58.67
2019-05-19T23:26:32.423Z,58.69
2019-05-19T23:29:03.727Z,58.30
2019-05-19T23:31:35.116Z,58.26
2019-05-19T23:34:06.458Z,59.25
2019-05-19T23:36:37.529Z,59.65
2019-05-19T23:39:08.595Z,58.97
2019-05-19T23:41:39.568Z,58.61
2019-05-19T23:44:10.895Z,59.46
2019-05-19T23:46:42.396Z,59.82
2019-05-19T23:49:13.357Z,59.89
2019-05-19T23:51:45.352Z,58.75
2019-05-19T23:54:16.598Z,59.05
2019-05-19T23:56:48.254Z,58.80
2019-05-19T23:59:19.597Z,58.79
